Pagrindinis puslapis
METAR-TAF:

METAR-TAF

Oro uostai :

Braunšveigas, Vokietija

platuma: 52-18N, ilguma: 010-27E, Aukštis: 81 m

Dabartinis oras

Ataskaita buvo paskelbta 32 minutes, ne 09:20 UTC
Vėjas 5 kt iš Vakarų, svyruoja nuo Vakarų/Pietvakarių ir Šiaurės Vakarų
Temperatūra 13°C
Drėgmė 67%
Slėgis 1030 hPa
Matomumas 10 km arba daugiau
nėra debesų žemiau 1500 m ir nėra kamuolinių lietaus debesų

METAR: EDVE 200920Z 28005KT 240V320 CAVOK 13/07 Q1030

Laikas: 11:52 (09:52 UTC)

Prognozė

Ataskaita buvo paskelbta 1 valandą ir 52 minutes, ne 08:00 UTC
Prognozė galioja nuo 20 metu 09 UTC su 20 metu 18 UTC
Vėjas 5 kt iš Vakarų
Matomumas 10 km arba daugiau
Išsisklaidę debesys ne aukštis 3000 ft

TAF: EDVE 200800Z 2009/2018 26005KT 9999 SCT030

Orai ataskaitas ir orų prognozės (METAR, TAF).

turimą stotys yra geltonos ir raudonos taškus žemėlapyje.

Perkelti pele per norėdami pamatyti stoties vardą.

Tada spustelėkite, norėdami matyti oro stebėjimo ir prognozės.

Norėdami pakeisti žemėlapį: spustelėkite ant žalios mygtukų su juodo kryžiaus žemyn,; žalią mygtuką su brūkšneliu, jei norite nutolinti; arba žalių rodyklių gretimoms žemėlapius.


METAR-TAF: